sensor_id;sensor_type;location;lat;lon;timestamp;P1;durP1;ratioP1;P2;durP2;ratioP2
6358;SDS011;3212;51.460;11.868;2023-04-19T01:18:59;8.87;;;5.57;;
6358;SDS011;3212;51.460;11.868;2023-04-19T01:22:22;11.73;;;6.00;;
6358;SDS011;3212;51.460;11.868;2023-04-19T01:25:45;10.70;;;5.07;;
6358;SDS011;3212;51.460;11.868;2023-04-19T01:29:07;11.27;;;5.25;;
6358;SDS011;3212;51.460;11.868;2023-04-19T01:32:30;9.80;;;5.50;;
6358;SDS011;3212;51.460;11.868;2023-04-19T01:35:52;10.97;;;6.00;;
6358;SDS011;3212;51.460;11.868;2023-04-19T01:39:15;10.97;;;5.33;;
6358;SDS011;3212;51.460;11.868;2023-04-19T01:42:37;10.93;;;6.20;;
6358;SDS011;3212;51.460;11.868;2023-04-19T01:46:00;7.90;;;5.37;;
6358;SDS011;3212;51.460;11.868;2023-04-19T01:49:23;7.50;;;5.30;;
6358;SDS011;3212;51.460;11.868;2023-04-19T01:52:45;9.00;;;4.80;;
6358;SDS011;3212;51.460;11.868;2023-04-19T01:56:07;7.77;;;5.23;;
6358;SDS011;3212;51.460;11.868;2023-04-19T01:59:30;10.70;;;5.23;;
6358;SDS011;3212;51.460;11.868;2023-04-19T02:02:53;10.57;;;5.10;;
6358;SDS011;3212;51.460;11.868;2023-04-19T02:06:15;7.90;;;4.70;;
6358;SDS011;3212;51.460;11.868;2023-04-19T02:09:38;5.87;;;4.27;;
6358;SDS011;3212;51.460;11.868;2023-04-19T02:13:00;8.33;;;4.50;;
6358;SDS011;3212;51.460;11.868;2023-04-19T02:16:23;10.07;;;4.17;;
6358;SDS011;3212;51.460;11.868;2023-04-19T02:19:46;9.03;;;4.40;;
6358;SDS011;3212;51.460;11.868;2023-04-19T02:23:08;6.40;;;3.97;;
6358;SDS011;3212;51.460;11.868;2023-04-19T02:26:31;7.07;;;4.00;;
6358;SDS011;3212;51.460;11.868;2023-04-19T02:29:54;7.83;;;3.83;;
6358;SDS011;3212;51.460;11.868;2023-04-19T02:33:16;8.93;;;4.28;;
6358;SDS011;3212;51.460;11.868;2023-04-19T02:36:39;6.93;;;4.10;;
6358;SDS011;3212;51.460;11.868;2023-04-19T02:40:03;6.70;;;4.07;;
6358;SDS011;3212;51.460;11.868;2023-04-19T02:43:25;6.20;;;3.80;;
6358;SDS011;3212;51.460;11.868;2023-04-19T02:46:48;7.77;;;3.57;;
6358;SDS011;3212;51.460;11.868;2023-04-19T02:50:12;6.80;;;3.80;;
6358;SDS011;3212;51.460;11.868;2023-04-19T02:53:34;9.50;;;3.77;;
6358;SDS011;3212;51.460;11.868;2023-04-19T02:56:57;5.00;;;3.87;;
6358;SDS011;3212;51.460;11.868;2023-04-19T03:00:20;5.70;;;3.17;;
6358;SDS011;3212;51.460;11.868;2023-04-19T03:03:42;4.40;;;3.47;;
6358;SDS011;3212;51.460;11.868;2023-04-19T03:07:05;5.63;;;3.53;;
6358;SDS011;3212;51.460;11.868;2023-04-19T03:10:27;5.60;;;3.30;;
6358;SDS011;3212;51.460;11.868;2023-04-19T03:13:49;7.07;;;3.60;;
6358;SDS011;3212;51.460;11.868;2023-04-19T03:17:12;6.47;;;3.17;;
6358;SDS011;3212;51.460;11.868;2023-04-19T03:20:35;7.40;;;3.13;;
6358;SDS011;3212;51.460;11.868;2023-04-19T03:23:57;6.00;;;3.77;;
6358;SDS011;3212;51.460;11.868;2023-04-19T03:27:20;8.10;;;3.73;;
6358;SDS011;3212;51.460;11.868;2023-04-19T03:30:42;7.00;;;3.07;;
6358;SDS011;3212;51.460;11.868;2023-04-19T03:34:05;5.63;;;3.40;;
6358;SDS011;3212;51.460;11.868;2023-04-19T03:37:27;5.83;;;3.33;;
6358;SDS011;3212;51.460;11.868;2023-04-19T03:40:50;5.07;;;3.37;;
6358;SDS011;3212;51.460;11.868;2023-04-19T03:44:12;5.87;;;3.37;;
6358;SDS011;3212;51.460;11.868;2023-04-19T03:47:34;6.47;;;3.63;;
6358;SDS011;3212;51.460;11.868;2023-04-19T03:50:58;7.53;;;3.47;;
6358;SDS011;3212;51.460;11.868;2023-04-19T03:54:20;4.63;;;3.20;;
6358;SDS011;3212;51.460;11.868;2023-04-19T03:57:42;7.03;;;3.67;;
6358;SDS011;3212;51.460;11.868;2023-04-19T04:01:06;6.23;;;4.03;;
6358;SDS011;3212;51.460;11.868;2023-04-19T04:04:28;6.67;;;3.20;;
6358;SDS011;3212;51.460;11.868;2023-04-19T04:07:50;4.67;;;3.10;;
6358;SDS011;3212;51.460;11.868;2023-04-19T04:11:13;6.20;;;3.13;;
6358;SDS011;3212;51.460;11.868;2023-04-19T04:14:35;5.47;;;3.13;;
6358;SDS011;3212;51.460;11.868;2023-04-19T04:17:58;7.00;;;3.00;;
6358;SDS011;3212;51.460;11.868;2023-04-19T04:21:20;7.30;;;3.10;;
6358;SDS011;3212;51.460;11.868;2023-04-19T04:24:42;3.13;;;2.50;;
6358;SDS011;3212;51.460;11.868;2023-04-19T04:28:05;4.87;;;3.10;;
6358;SDS011;3212;51.460;11.868;2023-04-19T04:31:27;5.30;;;3.25;;
6358;SDS011;3212;51.460;11.868;2023-04-19T04:34:50;5.53;;;3.03;;
6358;SDS011;3212;51.460;11.868;2023-04-19T04:38:13;5.23;;;3.90;;
6358;SDS011;3212;51.460;11.868;2023-04-19T04:41:35;5.87;;;3.50;;
6358;SDS011;3212;51.460;11.868;2023-04-19T04:44:58;5.30;;;3.60;;
6358;SDS011;3212;51.460;11.868;2023-04-19T04:48:21;5.40;;;3.43;;
6358;SDS011;3212;51.460;11.868;2023-04-19T04:51:44;3.63;;;2.93;;
6358;SDS011;3212;51.460;11.868;2023-04-19T04:55:07;6.57;;;3.27;;
6358;SDS011;3212;51.460;11.868;2023-04-19T04:58:30;6.90;;;2.70;;
6358;SDS011;3212;51.460;11.868;2023-04-19T05:01:52;2.87;;;2.30;;
6358;SDS011;3212;51.460;11.868;2023-04-19T05:05:14;4.17;;;3.30;;
6358;SDS011;3212;51.460;11.868;2023-04-19T05:08:37;4.00;;;2.63;;
6358;SDS011;3212;51.460;11.868;2023-04-19T05:12:00;3.40;;;2.47;;
6358;SDS011;3212;51.460;11.868;2023-04-19T05:15:23;4.03;;;2.60;;
6358;SDS011;3212;51.460;11.868;2023-04-19T05:18:45;4.50;;;2.83;;
6358;SDS011;3212;51.460;11.868;2023-04-19T05:22:08;4.20;;;2.70;;
6358;SDS011;3212;51.460;11.868;2023-04-19T05:25:31;5.65;;;2.97;;
6358;SDS011;3212;51.460;11.868;2023-04-19T05:28:53;5.90;;;3.20;;
6358;SDS011;3212;51.460;11.868;2023-04-19T05:32:16;4.20;;;2.23;;
6358;SDS011;3212;51.460;11.868;2023-04-19T05:35:38;4.00;;;2.40;;
6358;SDS011;3212;51.460;11.868;2023-04-19T05:39:01;4.77;;;2.50;;
6358;SDS011;3212;51.460;11.868;2023-04-19T05:42:24;5.87;;;3.10;;
6358;SDS011;3212;51.460;11.868;2023-04-19T05:45:46;4.63;;;2.80;;
6358;SDS011;3212;51.460;11.868;2023-04-19T05:49:15;8.70;;;3.03;;
6358;SDS011;3212;51.460;11.868;2023-04-19T05:52:37;2.80;;;2.30;;
6358;SDS011;3212;51.460;11.868;2023-04-19T05:56:01;2.87;;;2.47;;
6358;SDS011;3212;51.460;11.868;2023-04-19T05:59:23;5.93;;;2.70;;
6358;SDS011;3212;51.460;11.868;2023-04-19T06:02:46;5.13;;;2.80;;
6358;SDS011;3212;51.460;11.868;2023-04-19T06:06:10;5.07;;;2.70;;
6358;SDS011;3212;51.460;11.868;2023-04-19T06:09:33;3.30;;;2.07;;
6358;SDS011;3212;51.460;11.868;2023-04-19T06:12:55;5.43;;;2.77;;
6358;SDS011;3212;51.460;11.868;2023-04-19T06:16:18;5.33;;;2.63;;
6358;SDS011;3212;51.460;11.868;2023-04-19T06:19:41;3.43;;;2.07;;
6358;SDS011;3212;51.460;11.868;2023-04-19T06:23:06;3.07;;;2.20;;
6358;SDS011;3212;51.460;11.868;2023-04-19T06:26:28;3.70;;;2.57;;
6358;SDS011;3212;51.460;11.868;2023-04-19T06:29:51;2.70;;;2.10;;
6358;SDS011;3212;51.460;11.868;2023-04-19T06:33:14;2.75;;;2.10;;
6358;SDS011;3212;51.460;11.868;2023-04-19T06:36:37;6.43;;;2.30;;
6358;SDS011;3212;51.460;11.868;2023-04-19T06:40:00;5.13;;;2.40;;
6358;SDS011;3212;51.460;11.868;2023-04-19T06:43:23;4.50;;;2.43;;
6358;SDS011;3212;51.460;11.868;2023-04-19T06:46:45;2.90;;;2.00;;
6358;SDS011;3212;51.460;11.868;2023-04-19T06:50:08;2.13;;;1.93;;
6358;SDS011;3212;51.460;11.868;2023-04-19T06:53:31;2.70;;;2.40;;
6358;SDS011;3212;51.460;11.868;2023-04-19T06:56:53;4.10;;;2.40;;
6358;SDS011;3212;51.460;11.868;2023-04-19T07:00:16;4.37;;;2.33;;
6358;SDS011;3212;51.460;11.868;2023-04-19T07:03:38;2.93;;;1.90;;
6358;SDS011;3212;51.460;11.868;2023-04-19T07:07:01;7.50;;;2.27;;
6358;SDS011;3212;51.460;11.868;2023-04-19T07:10:23;5.60;;;2.13;;
6358;SDS011;3212;51.460;11.868;2023-04-19T07:13:46;4.40;;;2.67;;
6358;SDS011;3212;51.460;11.868;2023-04-19T07:17:08;2.90;;;1.70;;
6358;SDS011;3212;51.460;11.868;2023-04-19T07:20:31;4.00;;;2.37;;
6358;SDS011;3212;51.460;11.868;2023-04-19T07:23:54;4.00;;;2.53;;
6358;SDS011;3212;51.460;11.868;2023-04-19T07:27:16;3.90;;;2.77;;
6358;SDS011;3212;51.460;11.868;2023-04-19T07:30:39;3.70;;;2.30;;
6358;SDS011;3212;51.460;11.868;2023-04-19T07:34:03;4.13;;;2.27;;
6358;SDS011;3212;51.460;11.868;2023-04-19T07:37:26;5.60;;;2.40;;
6358;SDS011;3212;51.460;11.868;2023-04-19T07:40:48;6.27;;;2.30;;
6358;SDS011;3212;51.460;11.868;2023-04-19T07:44:10;4.30;;;2.40;;
6358;SDS011;3212;51.460;11.868;2023-04-19T07:47:34;4.67;;;2.87;;
6358;SDS011;3212;51.460;11.868;2023-04-19T07:50:57;4.90;;;2.57;;
6358;SDS011;3212;51.460;11.868;2023-04-19T07:54:20;5.17;;;2.43;;
6358;SDS011;3212;51.460;11.868;2023-04-19T07:57:42;4.77;;;2.37;;
6358;SDS011;3212;51.460;11.868;2023-04-19T08:01:06;3.17;;;2.20;;
6358;SDS011;3212;51.460;11.868;2023-04-19T08:04:28;3.70;;;2.60;;
6358;SDS011;3212;51.460;11.868;2023-04-19T08:07:51;6.37;;;2.23;;
6358;SDS011;3212;51.460;11.868;2023-04-19T08:11:14;6.77;;;2.30;;
6358;SDS011;3212;51.460;11.868;2023-04-19T08:14:36;3.20;;;2.40;;
6358;SDS011;3212;51.460;11.868;2023-04-19T08:17:58;3.60;;;2.70;;
6358;SDS011;3212;51.460;11.868;2023-04-19T08:21:22;6.30;;;2.77;;
6358;SDS011;3212;51.460;11.868;2023-04-19T08:24:45;3.03;;;2.23;;
6358;SDS011;3212;51.460;11.868;2023-04-19T08:28:08;3.07;;;2.47;;
6358;SDS011;3212;51.460;11.868;2023-04-19T08:31:31;3.03;;;2.37;;
6358;SDS011;3212;51.460;11.868;2023-04-19T08:34:53;4.73;;;2.27;;
6358;SDS011;3212;51.460;11.868;2023-04-19T08:38:16;3.63;;;2.80;;
6358;SDS011;3212;51.460;11.868;2023-04-19T08:41:39;7.03;;;2.97;;
6358;SDS011;3212;51.460;11.868;2023-04-19T08:45:01;2.60;;;2.40;;
6358;SDS011;3212;51.460;11.868;2023-04-19T08:48:24;4.20;;;2.20;;
6358;SDS011;3212;51.460;11.868;2023-04-19T08:51:47;2.73;;;2.30;;
6358;SDS011;3212;51.460;11.868;2023-04-19T08:55:09;3.90;;;2.30;;
6358;SDS011;3212;51.460;11.868;2023-04-19T08:58:31;2.30;;;2.10;;
6358;SDS011;3212;51.460;11.868;2023-04-19T09:01:54;3.87;;;2.50;;
6358;SDS011;3212;51.460;11.868;2023-04-19T09:05:17;2.80;;;2.30;;
6358;SDS011;3212;51.460;11.868;2023-04-19T09:08:39;3.37;;;2.23;;
6358;SDS011;3212;51.460;11.868;2023-04-19T09:12:02;3.20;;;2.47;;
6358;SDS011;3212;51.460;11.868;2023-04-19T09:19:03;7.00;;;2.70;;
6358;SDS011;3212;51.460;11.868;2023-04-19T09:22:26;2.60;;;2.37;;
6358;SDS011;3212;51.460;11.868;2023-04-19T09:25:53;5.77;;;2.90;;
6358;SDS011;3212;51.460;11.868;2023-04-19T09:29:16;3.53;;;2.50;;
6358;SDS011;3212;51.460;11.868;2023-04-19T09:32:44;4.17;;;2.30;;
6358;SDS011;3212;51.460;11.868;2023-04-19T09:36:07;4.00;;;2.30;;
6358;SDS011;3212;51.460;11.868;2023-04-19T09:39:30;4.00;;;2.60;;
6358;SDS011;3212;51.460;11.868;2023-04-19T09:42:52;4.60;;;2.53;;
6358;SDS011;3212;51.460;11.868;2023-04-19T09:50:03;3.47;;;2.60;;
6358;SDS011;3212;51.460;11.868;2023-04-19T09:53:28;3.28;;;2.58;;
6358;SDS011;3212;51.460;11.868;2023-04-19T09:56:50;7.63;;;2.73;;
6358;SDS011;3212;51.460;11.868;2023-04-19T10:00:14;3.00;;;2.47;;
6358;SDS011;3212;51.460;11.868;2023-04-19T10:03:36;3.40;;;2.53;;
6358;SDS011;3212;51.460;11.868;2023-04-19T10:06:59;2.80;;;2.40;;
6358;SDS011;3212;51.460;11.868;2023-04-19T10:10:22;4.03;;;2.63;;
6358;SDS011;3212;51.460;11.868;2023-04-19T10:13:44;4.43;;;2.30;;
6358;SDS011;3212;51.460;11.868;2023-04-19T10:17:08;3.17;;;2.87;;
6358;SDS011;3212;51.460;11.868;2023-04-19T10:20:33;7.43;;;2.47;;
6358;SDS011;3212;51.460;11.868;2023-04-19T10:23:54;3.10;;;2.67;;
6358;SDS011;3212;51.460;11.868;2023-04-19T10:27:17;3.87;;;2.40;;
6358;SDS011;3212;51.460;11.868;2023-04-19T10:34:14;4.77;;;2.90;;
6358;SDS011;3212;51.460;11.868;2023-04-19T10:37:39;4.13;;;2.87;;
6358;SDS011;3212;51.460;11.868;2023-04-19T10:41:01;2.93;;;2.17;;
6358;SDS011;3212;51.460;11.868;2023-04-19T10:44:24;5.07;;;2.70;;
6358;SDS011;3212;51.460;11.868;2023-04-19T10:47:47;2.90;;;2.40;;
6358;SDS011;3212;51.460;11.868;2023-04-19T10:51:11;3.13;;;2.63;;
6358;SDS011;3212;51.460;11.868;2023-04-19T10:54:33;3.15;;;2.40;;
6358;SDS011;3212;51.460;11.868;2023-04-19T10:58:01;4.17;;;2.70;;
6358;SDS011;3212;51.460;11.868;2023-04-19T11:04:57;2.50;;;2.30;;
6358;SDS011;3212;51.460;11.868;2023-04-19T11:08:22;8.13;;;2.67;;
6358;SDS011;3212;51.460;11.868;2023-04-19T11:11:44;2.93;;;2.47;;
6358;SDS011;3212;51.460;11.868;2023-04-19T11:15:07;4.47;;;2.37;;
6358;SDS011;3212;51.460;11.868;2023-04-19T11:18:29;3.17;;;2.00;;
6358;SDS011;3212;51.460;11.868;2023-04-19T11:21:52;2.77;;;2.33;;
6358;SDS011;3212;51.460;11.868;2023-04-19T11:25:17;4.30;;;2.80;;
6358;SDS011;3212;51.460;11.868;2023-04-19T11:28:39;3.70;;;2.37;;
6358;SDS011;3212;51.460;11.868;2023-04-19T11:32:01;3.23;;;2.30;;
6358;SDS011;3212;51.460;11.868;2023-04-19T11:35:24;3.37;;;2.58;;
6358;SDS011;3212;51.460;11.868;2023-04-19T11:38:46;6.20;;;2.53;;
6358;SDS011;3212;51.460;11.868;2023-04-19T11:42:16;4.40;;;2.47;;
6358;SDS011;3212;51.460;11.868;2023-04-19T11:45:38;3.00;;;2.40;;
6358;SDS011;3212;51.460;11.868;2023-04-19T11:49:00;2.40;;;2.20;;
6358;SDS011;3212;51.460;11.868;2023-04-19T11:52:23;5.93;;;2.63;;
6358;SDS011;3212;51.460;11.868;2023-04-19T11:55:47;3.43;;;2.80;;
6358;SDS011;3212;51.460;11.868;2023-04-19T11:59:10;4.27;;;2.63;;
6358;SDS011;3212;51.460;11.868;2023-04-19T12:02:35;4.60;;;2.50;;
6358;SDS011;3212;51.460;11.868;2023-04-19T12:05:56;3.57;;;2.63;;
6358;SDS011;3212;51.460;11.868;2023-04-19T12:09:19;7.23;;;2.90;;
6358;SDS011;3212;51.460;11.868;2023-04-19T12:12:40;4.90;;;3.07;;
6358;SDS011;3212;51.460;11.868;2023-04-19T12:16:04;5.43;;;2.73;;
6358;SDS011;3212;51.460;11.868;2023-04-19T12:19:27;3.30;;;3.00;;
6358;SDS011;3212;51.460;11.868;2023-04-19T12:22:49;5.20;;;2.80;;
6358;SDS011;3212;51.460;11.868;2023-04-19T12:26:11;4.10;;;2.80;;
6358;SDS011;3212;51.460;11.868;2023-04-19T12:29:35;3.40;;;2.60;;
6358;SDS011;3212;51.460;11.868;2023-04-19T12:32:57;4.90;;;3.10;;
6358;SDS011;3212;51.460;11.868;2023-04-19T12:36:19;3.97;;;2.90;;
6358;SDS011;3212;51.460;11.868;2023-04-19T12:39:43;3.63;;;2.93;;
6358;SDS011;3212;51.460;11.868;2023-04-19T12:43:05;3.70;;;2.70;;
6358;SDS011;3212;51.460;11.868;2023-04-19T12:46:28;3.67;;;3.07;;
6358;SDS011;3212;51.460;11.868;2023-04-19T12:49:50;5.70;;;3.50;;
6358;SDS011;3212;51.460;11.868;2023-04-19T12:53:13;6.90;;;3.00;;
6358;SDS011;3212;51.460;11.868;2023-04-19T12:56:35;3.33;;;2.80;;
6358;SDS011;3212;51.460;11.868;2023-04-19T12:59:58;6.17;;;3.10;;
6358;SDS011;3212;51.460;11.868;2023-04-19T13:03:21;7.73;;;2.63;;
6358;SDS011;3212;51.460;11.868;2023-04-19T13:06:43;3.13;;;2.83;;
6358;SDS011;3212;51.460;11.868;2023-04-19T13:10:06;3.97;;;2.80;;
6358;SDS011;3212;51.460;11.868;2023-04-19T13:13:28;3.00;;;2.50;;
6358;SDS011;3212;51.460;11.868;2023-04-19T13:16:51;2.97;;;2.50;;
6358;SDS011;3212;51.460;11.868;2023-04-19T13:20:13;4.70;;;3.23;;
6358;SDS011;3212;51.460;11.868;2023-04-19T13:23:36;3.93;;;3.00;;
6358;SDS011;3212;51.460;11.868;2023-04-19T13:26:59;3.80;;;2.70;;
6358;SDS011;3212;51.460;11.868;2023-04-19T13:30:21;8.03;;;2.67;;
6358;SDS011;3212;51.460;11.868;2023-04-19T13:33:44;4.00;;;2.47;;
6358;SDS011;3212;51.460;11.868;2023-04-19T13:37:06;7.53;;;3.20;;
6358;SDS011;3212;51.460;11.868;2023-04-19T13:40:28;5.30;;;3.10;;
6358;SDS011;3212;51.460;11.868;2023-04-19T13:43:52;4.80;;;2.93;;
6358;SDS011;3212;51.460;11.868;2023-04-19T13:47:14;4.70;;;2.90;;
6358;SDS011;3212;51.460;11.868;2023-04-19T13:50:36;3.80;;;2.77;;
6358;SDS011;3212;51.460;11.868;2023-04-19T13:54:00;4.30;;;2.60;;
6358;SDS011;3212;51.460;11.868;2023-04-19T13:57:22;3.77;;;2.70;;
6358;SDS011;3212;51.460;11.868;2023-04-19T14:00:44;2.97;;;2.57;;
6358;SDS011;3212;51.460;11.868;2023-04-19T14:04:07;4.70;;;2.70;;
6358;SDS011;3212;51.460;11.868;2023-04-19T14:07:29;4.20;;;2.60;;
6358;SDS011;3212;51.460;11.868;2023-04-19T14:10:52;4.20;;;3.00;;
6358;SDS011;3212;51.460;11.868;2023-04-19T14:14:16;5.07;;;2.70;;
6358;SDS011;3212;51.460;11.868;2023-04-19T14:17:38;4.83;;;2.90;;
6358;SDS011;3212;51.460;11.868;2023-04-19T14:21:00;4.27;;;2.90;;
6358;SDS011;3212;51.460;11.868;2023-04-19T14:24:23;3.50;;;2.47;;
6358;SDS011;3212;51.460;11.868;2023-04-19T14:27:45;3.63;;;2.70;;
6358;SDS011;3212;51.460;11.868;2023-04-19T14:31:08;4.13;;;2.47;;
6358;SDS011;3212;51.460;11.868;2023-04-19T14:34:31;4.90;;;2.97;;
6358;SDS011;3212;51.460;11.868;2023-04-19T14:37:53;3.90;;;2.83;;
6358;SDS011;3212;51.460;11.868;2023-04-19T14:41:16;4.63;;;3.20;;
6358;SDS011;3212;51.460;11.868;2023-04-19T14:44:39;3.50;;;3.13;;
6358;SDS011;3212;51.460;11.868;2023-04-19T14:48:01;3.80;;;2.70;;
6358;SDS011;3212;51.460;11.868;2023-04-19T14:51:24;6.60;;;3.10;;
6358;SDS011;3212;51.460;11.868;2023-04-19T14:54:47;3.90;;;3.03;;
6358;SDS011;3212;51.460;11.868;2023-04-19T14:58:09;6.30;;;3.17;;
6358;SDS011;3212;51.460;11.868;2023-04-19T15:01:32;6.03;;;3.30;;
6358;SDS011;3212;51.460;11.868;2023-04-19T15:04:56;6.40;;;3.10;;
6358;SDS011;3212;51.460;11.868;2023-04-19T15:08:18;7.83;;;3.30;;
6358;SDS011;3212;51.460;11.868;2023-04-19T15:11:41;4.37;;;2.93;;
6358;SDS011;3212;51.460;11.868;2023-04-19T15:15:05;7.50;;;3.50;;
6358;SDS011;3212;51.460;11.868;2023-04-19T15:18:29;3.90;;;3.07;;
6358;SDS011;3212;51.460;11.868;2023-04-19T15:21:52;6.13;;;3.80;;
6358;SDS011;3212;51.460;11.868;2023-04-19T15:25:14;4.13;;;3.10;;
6358;SDS011;3212;51.460;11.868;2023-04-19T15:28:36;4.43;;;3.00;;
6358;SDS011;3212;51.460;11.868;2023-04-19T15:31:59;5.93;;;3.27;;
6358;SDS011;3212;51.460;11.868;2023-04-19T15:35:23;3.87;;;2.83;;
6358;SDS011;3212;51.460;11.868;2023-04-19T15:38:46;5.07;;;3.33;;
6358;SDS011;3212;51.460;11.868;2023-04-19T15:42:08;4.93;;;3.30;;
6358;SDS011;3212;51.460;11.868;2023-04-19T15:45:31;5.17;;;3.40;;
6358;SDS011;3212;51.460;11.868;2023-04-19T15:48:53;4.07;;;2.93;;
6358;SDS011;3212;51.460;11.868;2023-04-19T15:52:15;8.03;;;3.00;;
6358;SDS011;3212;51.460;11.868;2023-04-19T15:55:39;3.93;;;2.90;;
6358;SDS011;3212;51.460;11.868;2023-04-19T15:59:01;4.03;;;2.90;;
6358;SDS011;3212;51.460;11.868;2023-04-19T16:02:24;6.43;;;3.07;;
6358;SDS011;3212;51.460;11.868;2023-04-19T16:05:47;4.50;;;3.13;;
6358;SDS011;3212;51.460;11.868;2023-04-19T16:09:11;3.03;;;2.70;;
6358;SDS011;3212;51.460;11.868;2023-04-19T16:12:34;4.70;;;3.20;;
6358;SDS011;3212;51.460;11.868;2023-04-19T16:15:57;4.97;;;2.90;;
6358;SDS011;3212;51.460;11.868;2023-04-19T16:19:19;5.77;;;3.10;;
6358;SDS011;3212;51.460;11.868;2023-04-19T16:22:42;6.10;;;4.17;;
6358;SDS011;3212;51.460;11.868;2023-04-19T16:26:05;5.20;;;3.33;;
6358;SDS011;3212;51.460;11.868;2023-04-19T16:29:27;13.00;;;3.70;;
6358;SDS011;3212;51.460;11.868;2023-04-19T16:32:50;5.80;;;3.37;;
6358;SDS011;3212;51.460;11.868;2023-04-19T16:36:13;5.70;;;3.63;;
6358;SDS011;3212;51.460;11.868;2023-04-19T16:39:35;8.40;;;3.90;;
6358;SDS011;3212;51.460;11.868;2023-04-19T16:42:57;4.33;;;3.30;;
6358;SDS011;3212;51.460;11.868;2023-04-19T16:46:21;7.30;;;3.80;;
6358;SDS011;3212;51.460;11.868;2023-04-19T16:49:43;6.70;;;3.60;;
6358;SDS011;3212;51.460;11.868;2023-04-19T16:53:05;7.83;;;3.50;;
6358;SDS011;3212;51.460;11.868;2023-04-19T16:56:29;6.60;;;3.70;;
6358;SDS011;3212;51.460;11.868;2023-04-19T16:59:51;7.23;;;3.70;;
6358;SDS011;3212;51.460;11.868;2023-04-19T17:03:13;4.20;;;3.20;;
6358;SDS011;3212;51.460;11.868;2023-04-19T17:06:37;4.83;;;3.20;;
6358;SDS011;3212;51.460;11.868;2023-04-19T17:09:59;4.60;;;3.40;;
6358;SDS011;3212;51.460;11.868;2023-04-19T17:13:21;4.77;;;3.30;;
6358;SDS011;3212;51.460;11.868;2023-04-19T17:16:44;6.13;;;3.33;;
6358;SDS011;3212;51.460;11.868;2023-04-19T17:20:08;4.40;;;3.23;;
6358;SDS011;3212;51.460;11.868;2023-04-19T17:23:31;6.97;;;3.23;;
6358;SDS011;3212;51.460;11.868;2023-04-19T17:26:53;4.07;;;3.40;;
6358;SDS011;3212;51.460;11.868;2023-04-19T17:30:16;4.80;;;3.23;;
6358;SDS011;3212;51.460;11.868;2023-04-19T17:33:38;6.60;;;3.67;;
6358;SDS011;3212;51.460;11.868;2023-04-19T17:37:01;7.10;;;3.30;;
6358;SDS011;3212;51.460;11.868;2023-04-19T17:40:24;4.30;;;3.33;;
6358;SDS011;3212;51.460;11.868;2023-04-19T17:43:47;5.67;;;4.00;;
6358;SDS011;3212;51.460;11.868;2023-04-19T17:47:09;9.73;;;3.90;;
6358;SDS011;3212;51.460;11.868;2023-04-19T17:50:32;7.47;;;4.27;;
6358;SDS011;3212;51.460;11.868;2023-04-19T17:53:55;8.43;;;3.80;;
6358;SDS011;3212;51.460;11.868;2023-04-19T17:57:18;8.47;;;4.10;;
6358;SDS011;3212;51.460;11.868;2023-04-19T18:00:40;11.03;;;4.20;;
6358;SDS011;3212;51.460;11.868;2023-04-19T18:04:03;8.70;;;4.50;;
6358;SDS011;3212;51.460;11.868;2023-04-19T18:07:25;15.40;;;4.97;;
6358;SDS011;3212;51.460;11.868;2023-04-19T18:10:48;7.80;;;5.20;;
6358;SDS011;3212;51.460;11.868;2023-04-19T18:14:11;8.00;;;4.70;;
6358;SDS011;3212;51.460;11.868;2023-04-19T18:17:34;6.40;;;4.30;;
6358;SDS011;3212;51.460;11.868;2023-04-19T18:20:56;15.50;;;4.97;;
6358;SDS011;3212;51.460;11.868;2023-04-19T18:24:19;9.07;;;5.10;;
6358;SDS011;3212;51.460;11.868;2023-04-19T18:27:42;8.77;;;4.90;;
6358;SDS011;3212;51.460;11.868;2023-04-19T18:31:05;7.53;;;4.53;;
6358;SDS011;3212;51.460;11.868;2023-04-19T18:34:27;7.33;;;4.70;;
6358;SDS011;3212;51.460;11.868;2023-04-19T18:37:49;6.90;;;4.73;;
6358;SDS011;3212;51.460;11.868;2023-04-19T18:41:13;8.90;;;5.50;;
6358;SDS011;3212;51.460;11.868;2023-04-19T18:44:35;7.00;;;4.67;;
6358;SDS011;3212;51.460;11.868;2023-04-19T18:47:59;7.50;;;5.67;;
6358;SDS011;3212;51.460;11.868;2023-04-19T18:51:21;10.60;;;5.73;;
6358;SDS011;3212;51.460;11.868;2023-04-19T18:54:44;9.33;;;5.53;;
6358;SDS011;3212;51.460;11.868;2023-04-19T18:58:06;7.32;;;4.65;;
6358;SDS011;3212;51.460;11.868;2023-04-19T19:01:28;9.90;;;5.30;;
6358;SDS011;3212;51.460;11.868;2023-04-19T19:04:51;8.23;;;4.93;;
6358;SDS011;3212;51.460;11.868;2023-04-19T19:08:13;8.60;;;4.97;;
6358;SDS011;3212;51.460;11.868;2023-04-19T19:11:36;6.83;;;4.60;;
6358;SDS011;3212;51.460;11.868;2023-04-19T19:14:59;8.93;;;4.67;;
6358;SDS011;3212;51.460;11.868;2023-04-19T19:18:21;6.93;;;4.43;;
6358;SDS011;3212;51.460;11.868;2023-04-19T19:21:44;10.30;;;5.57;;
6358;SDS011;3212;51.460;11.868;2023-04-19T19:25:07;10.90;;;5.37;;
6358;SDS011;3212;51.460;11.868;2023-04-19T19:28:29;7.60;;;5.27;;
6358;SDS011;3212;51.460;11.868;2023-04-19T19:31:52;10.17;;;5.30;;
6358;SDS011;3212;51.460;11.868;2023-04-19T19:35:16;9.00;;;5.63;;
6358;SDS011;3212;51.460;11.868;2023-04-19T19:38:39;10.57;;;5.20;;
6358;SDS011;3212;51.460;11.868;2023-04-19T19:42:01;10.73;;;5.33;;
6358;SDS011;3212;51.460;11.868;2023-04-19T19:45:26;10.00;;;5.23;;
6358;SDS011;3212;51.460;11.868;2023-04-19T19:48:49;15.33;;;5.60;;
6358;SDS011;3212;51.460;11.868;2023-04-19T19:52:12;6.90;;;4.70;;
6358;SDS011;3212;51.460;11.868;2023-04-19T19:55:34;8.50;;;4.80;;
6358;SDS011;3212;51.460;11.868;2023-04-19T19:58:57;9.60;;;5.07;;
6358;SDS011;3212;51.460;11.868;2023-04-19T20:02:19;6.80;;;4.97;;
6358;SDS011;3212;51.460;11.868;2023-04-19T20:05:42;8.73;;;5.80;;
6358;SDS011;3212;51.460;11.868;2023-04-19T20:09:05;11.80;;;5.60;;
6358;SDS011;3212;51.460;11.868;2023-04-19T20:12:27;11.57;;;5.60;;
6358;SDS011;3212;51.460;11.868;2023-04-19T20:15:50;7.78;;;5.03;;
6358;SDS011;3212;51.460;11.868;2023-04-19T20:19:12;8.80;;;5.57;;
6358;SDS011;3212;51.460;11.868;2023-04-19T20:22:34;8.33;;;4.90;;
6358;SDS011;3212;51.460;11.868;2023-04-19T20:25:57;13.23;;;6.00;;
6358;SDS011;3212;51.460;11.868;2023-04-19T20:29:21;6.87;;;5.10;;
6358;SDS011;3212;51.460;11.868;2023-04-19T20:32:44;8.50;;;5.60;;
6358;SDS011;3212;51.460;11.868;2023-04-19T20:36:06;7.50;;;5.07;;
6358;SDS011;3212;51.460;11.868;2023-04-19T20:39:29;8.60;;;5.23;;
6358;SDS011;3212;51.460;11.868;2023-04-19T20:42:51;8.20;;;5.30;;
6358;SDS011;3212;51.460;11.868;2023-04-19T20:46:14;12.23;;;5.37;;
6358;SDS011;3212;51.460;11.868;2023-04-19T20:49:37;7.67;;;5.00;;
6358;SDS011;3212;51.460;11.868;2023-04-19T20:52:59;7.00;;;4.63;;
6358;SDS011;3212;51.460;11.868;2023-04-19T20:56:22;9.17;;;5.40;;
6358;SDS011;3212;51.460;11.868;2023-04-19T20:59:44;9.20;;;5.17;;
6358;SDS011;3212;51.460;11.868;2023-04-19T21:03:06;11.60;;;5.43;;
6358;SDS011;3212;51.460;11.868;2023-04-19T21:06:29;13.10;;;7.17;;
6358;SDS011;3212;51.460;11.868;2023-04-19T21:09:51;8.10;;;5.17;;
6358;SDS011;3212;51.460;11.868;2023-04-19T21:13:13;9.83;;;5.70;;
6358;SDS011;3212;51.460;11.868;2023-04-19T21:16:36;8.70;;;4.80;;
6358;SDS011;3212;51.460;11.868;2023-04-19T21:19:59;7.50;;;5.30;;
6358;SDS011;3212;51.460;11.868;2023-04-19T21:23:21;10.00;;;5.57;;
6358;SDS011;3212;51.460;11.868;2023-04-19T21:26:43;6.60;;;4.80;;
6358;SDS011;3212;51.460;11.868;2023-04-19T21:30:06;8.10;;;5.20;;
6358;SDS011;3212;51.460;11.868;2023-04-19T21:33:28;10.80;;;5.40;;
6358;SDS011;3212;51.460;11.868;2023-04-19T21:36:51;7.40;;;4.90;;
6358;SDS011;3212;51.460;11.868;2023-04-19T21:40:14;6.53;;;4.73;;
6358;SDS011;3212;51.460;11.868;2023-04-19T21:43:36;11.73;;;4.67;;
6358;SDS011;3212;51.460;11.868;2023-04-19T21:46:59;5.53;;;4.60;;
6358;SDS011;3212;51.460;11.868;2023-04-19T21:50:22;5.57;;;3.80;;
6358;SDS011;3212;51.460;11.868;2023-04-19T21:53:44;6.72;;;3.85;;
6358;SDS011;3212;51.460;11.868;2023-04-19T21:57:06;6.57;;;4.50;;
6358;SDS011;3212;51.460;11.868;2023-04-19T22:00:28;5.90;;;3.50;;
6358;SDS011;3212;51.460;11.868;2023-04-19T22:03:52;5.78;;;4.15;;
6358;SDS011;3212;51.460;11.868;2023-04-19T22:07:14;4.67;;;3.70;;
6358;SDS011;3212;51.460;11.868;2023-04-19T22:10:36;5.13;;;3.60;;